Time;durP1;ratioP1;P1;durP2;ratioP2;P2;SDS_P1;SDS_P2;PMS_P1;PMS_P2;Temp;Humidity;BMP_temperature;BMP_pressure;BME280_temperature;BME280_humidity;BME280_pressure;Samples;Min_cycle;Max_cycle;Signal;HPM_P1;HPM_P2
2021/10/26 00:00:34;;;;;;;;;;;;;;;18.14;63.18;100416.44;2073849;28;20350;-59
2021/10/26 00:01:34;;;;;;;;;;;;;;;18.14;63.27;100410.97;2082459;28;20355;-60
2021/10/26 00:02:35;;;;;;;;;;;;;;;18.13;63.07;100409.25;2082372;28;19928;-60
2021/10/26 00:03:36;;;;;;;;;;;;;;;18.14;63.27;100410.97;2083009;28;20015;-60
2021/10/26 00:04:37;;;;;;;;;;;;;;;18.13;63.21;100414.72;2080554;28;20402;-60
2021/10/26 00:05:37;;;;;;;;;;;;;;;18.13;63.13;100420.19;2079385;28;20015;-60
2021/10/26 00:06:38;;;;;;;;;;;;;;;18.13;63.10;100422.91;2084136;28;19920;-60
2021/10/26 00:07:39;;;;;;;;;;;;;;;18.13;63.18;100425.63;2082091;28;20385;-62
2021/10/26 00:08:39;;;;;;;;;;;;;;;18.13;63.01;100422.91;2083457;28;19920;-60
2021/10/26 00:09:41;;;;;;;;;;;;;;;18.13;62.93;100425.63;2079228;28;20358;-60
2021/10/26 00:10:41;;;;;;;;;;;;;;;18.12;63.08;100423.88;2085412;28;19917;-60
2021/10/26 00:11:42;;;;;;;;;;;;;;;18.12;63.16;100424.75;2080500;28;20407;-60
2021/10/26 00:12:42;;;;;;;;;;;;;;;18.12;63.19;100430.19;2085315;28;19916;-60
2021/10/26 00:13:43;;;;;;;;;;;;;;;18.12;63.12;100423.88;2083468;28;19923;-61
2021/10/26 00:14:43;;;;;;;;;;;;;;;18.11;63.08;100439.41;2081713;28;19924;-60
2021/10/26 00:15:43;;;;;;;;;;;;;;;18.12;62.97;100440.25;2081028;28;21007;-60
2021/10/26 00:16:44;;;;;;;;;;;;;;;18.12;63.00;100434.78;2084913;28;20250;-60
2021/10/26 00:17:44;;;;;;;;;;;;;;;18.12;63.05;100434.78;2084964;28;19912;-60
2021/10/26 00:18:45;;;;;;;;;;;;;;;18.11;63.02;100439.41;2082472;28;20299;-61
2021/10/26 00:19:45;;;;;;;;;;;;;;;18.12;62.96;100440.25;2079713;28;20523;-60
2021/10/26 00:20:46;;;;;;;;;;;;;;;18.12;62.96;100445.72;2084921;28;19916;-60
2021/10/26 00:21:46;;;;;;;;;;;;;;;18.11;63.03;100439.41;2087416;28;19916;-60
2021/10/26 00:22:46;;;;;;;;;;;;;;;18.11;63.13;100438.53;2083486;28;19923;-60
2021/10/26 00:23:47;;;;;;;;;;;;;;;18.10;63.08;100439.53;2084816;28;19923;-61
2021/10/26 00:24:47;;;;;;;;;;;;;;;18.10;63.10;100432.19;2084588;28;19920;-61
2021/10/26 00:25:47;;;;;;;;;;;;;;;18.10;62.88;100431.34;2084195;28;19916;-61
2021/10/26 00:26:49;;;;;;;;;;;;;;;18.10;62.98;100439.53;2085202;28;19916;-60
2021/10/26 00:27:50;;;;;;;;;;;;;;;18.10;63.04;100436.78;2084558;28;19923;-59
2021/10/26 00:28:51;;;;;;;;;;;;;;;18.10;63.06;100437.66;2082443;28;19927;-60
2021/10/26 00:29:52;;;;;;;;;;;;;;;18.09;63.09;100440.53;2084565;28;19916;-60
2021/10/26 00:30:52;;;;;;;;;;;;;;;18.09;62.89;100435.06;2081058;28;19917;-61
2021/10/26 00:31:52;;;;;;;;;;;;;;;18.10;62.98;100447.72;2085941;28;20434;-60
2021/10/26 00:32:53;;;;;;;;;;;;;;;18.09;63.06;100441.41;2084061;28;19915;-60
2021/10/26 00:33:53;;;;;;;;;;;;;;;18.09;62.89;100443.25;2084610;28;19916;-60
2021/10/26 00:34:53;;;;;;;;;;;;;;;18.08;63.03;100439.69;2084505;28;19916;-60
2021/10/26 00:35:54;;;;;;;;;;;;;;;18.09;62.82;100438.66;2079723;28;19975;-60
2021/10/26 00:36:54;;;;;;;;;;;;;;;18.09;62.96;100443.25;2084466;28;20382;-61
2021/10/26 00:37:55;;;;;;;;;;;;;;;18.09;62.89;100441.41;2075857;28;19970;-61
2021/10/26 00:38:56;;;;;;;;;;;;;;;18.08;62.96;100438.78;2085444;28;19916;-60
2021/10/26 00:39:56;;;;;;;;;;;;;;;18.08;62.93;100445.13;2084301;28;19977;-60
2021/10/26 00:40:57;;;;;;;;;;;;;;;18.08;62.96;100449.69;2086394;28;20340;-60
2021/10/26 00:41:58;;;;;;;;;;;;;;;18.09;62.91;100446.00;2083058;28;19913;-59
2021/10/26 00:42:58;;;;;;;;;;;;;;;18.08;62.65;100438.78;2087012;28;20792;-61
2021/10/26 00:43:58;;;;;;;;;;;;;;;18.08;62.93;100436.06;2080182;28;19923;-60
2021/10/26 00:44:59;;;;;;;;;;;;;;;18.08;62.75;100449.69;2077687;28;20793;-60
2021/10/26 00:45:59;;;;;;;;;;;;;;;18.08;62.79;100445.13;2076464;28;19947;-60
2021/10/26 00:47:00;;;;;;;;;;;;;;;18.08;62.77;100449.69;2082978;28;19920;-60
2021/10/26 00:48:01;;;;;;;;;;;;;;;18.08;62.77;100444.25;2081899;28;19986;-60
2021/10/26 00:49:04;;;;;;;;;;;;;;;18.07;62.68;100445.25;2085143;28;20317;-60
2021/10/26 00:50:05;;;;;;;;;;;;;;;18.08;62.70;100444.25;2082723;28;20144;-60
2021/10/26 00:51:07;;;;;;;;;;;;;;;18.08;62.73;100446.97;2082490;28;19921;-60
2021/10/26 00:52:07;;;;;;;;;;;;;;;18.07;62.72;100442.53;2085164;28;19916;-60
2021/10/26 00:53:08;;;;;;;;;;;;;;;18.07;62.88;100448.84;2083052;28;19924;-60
2021/10/26 00:54:09;;;;;;;;;;;;;;;18.08;62.80;100449.69;2084565;28;19916;-60
2021/10/26 00:55:09;;;;;;;;;;;;;;;18.07;62.71;100448.84;2082622;28;19921;-60
2021/10/26 00:56:09;;;;;;;;;;;;;;;18.08;62.72;100446.97;2084746;28;19952;-60
2021/10/26 00:57:10;;;;;;;;;;;;;;;18.07;62.72;100447.97;2074831;28;20444;-60
2021/10/26 00:58:11;;;;;;;;;;;;;;;18.08;62.84;100455.16;2069330;28;20006;-60
2021/10/26 00:59:11;;;;;;;;;;;;;;;18.07;62.73;100453.44;2081068;28;19947;-60
2021/10/26 01:00:12;;;;;;;;;;;;;;;18.07;62.63;100454.28;2079882;28;19978;-59
2021/10/26 01:01:12;;;;;;;;;;;;;;;18.07;62.74;100454.28;2083588;28;20360;-60
2021/10/26 01:02:12;;;;;;;;;;;;;;;18.07;62.79;100447.97;2082701;28;20098;-59
2021/10/26 01:03:13;;;;;;;;;;;;;;;18.07;62.67;100450.72;2073386;28;20509;-60
2021/10/26 01:04:13;;;;;;;;;;;;;;;18.07;62.54;100458.91;2070845;28;19924;-60
2021/10/26 01:05:15;;;;;;;;;;;;;;;18.07;62.82;100457.03;2082343;28;19989;-61
2021/10/26 01:06:15;;;;;;;;;;;;;;;18.07;62.75;100456.16;2081926;28;19928;-60
2021/10/26 01:07:16;;;;;;;;;;;;;;;18.07;62.57;100453.44;2082262;28;19938;-60
2021/10/26 01:08:16;;;;;;;;;;;;;;;18.07;62.65;100453.44;2081841;28;19916;-60
2021/10/26 01:09:16;;;;;;;;;;;;;;;18.05;62.52;100456.28;2079542;28;20309;-60
2021/10/26 01:10:18;;;;;;;;;;;;;;;18.06;62.67;100457.19;2080018;28;20303;-60
2021/10/26 01:11:18;;;;;;;;;;;;;;;18.07;62.74;100447.97;2084539;28;19923;-60
2021/10/26 01:12:18;;;;;;;;;;;;;;;18.07;62.53;100453.44;2080620;28;20639;-60
2021/10/26 01:13:21;;;;;;;;;;;;;;;18.06;62.62;100458.03;2082139;28;20288;-60
2021/10/26 01:14:22;;;;;;;;;;;;;;;18.06;62.64;100457.19;2079056;28;19969;-60
2021/10/26 01:15:23;;;;;;;;;;;;;;;18.06;62.61;100459.91;2082114;28;19920;-60
2021/10/26 01:16:25;;;;;;;;;;;;;;;18.05;62.65;100450.84;2083037;28;20042;-60
2021/10/26 01:17:25;;;;;;;;;;;;;;;18.06;62.71;100451.72;2083879;28;19939;-60
2021/10/26 01:18:26;;;;;;;;;;;;;;;18.05;62.59;100456.28;2084064;28;19923;-59
2021/10/26 01:19:26;;;;;;;;;;;;;;;18.05;62.57;100452.69;2081342;28;20390;-60
2021/10/26 01:20:26;;;;;;;;;;;;;;;18.05;62.66;100455.44;2082536;28;19943;-60
2021/10/26 01:21:27;;;;;;;;;;;;;;;18.05;62.74;100461.75;2081568;28;19924;-60
2021/10/26 01:22:29;;;;;;;;;;;;;;;18.05;62.65;100460.88;2084159;28;20023;-60
2021/10/26 01:23:30;;;;;;;;;;;;;;;18.05;62.69;100450.84;2080474;28;19966;-60
2021/10/26 01:24:30;;;;;;;;;;;;;;;18.05;62.41;100460.88;2083094;28;19909;-60
2021/10/26 01:25:30;;;;;;;;;;;;;;;18.05;62.61;100449.97;2082443;28;19923;-60
2021/10/26 01:26:34;;;;;;;;;;;;;;;18.04;62.59;100460.03;2071483;28;19917;-60
2021/10/26 01:27:38;;;;;;;;;;;;;;;18.04;62.65;100449.13;2072465;28;19915;-60
2021/10/26 01:28:39;;;;;;;;;;;;;;;18.04;62.49;100448.25;2081250;28;19925;-60
2021/10/26 01:29:39;;;;;;;;;;;;;;;18.05;62.61;100449.97;2081752;28;19939;-60
2021/10/26 01:30:40;;;;;;;;;;;;;;;18.05;62.41;100444.53;2083304;28;20010;-60
2021/10/26 01:31:40;;;;;;;;;;;;;;;18.04;62.56;100449.13;2083495;28;20723;-60
2021/10/26 01:32:41;;;;;;;;;;;;;;;18.04;62.58;100443.66;2079731;28;19927;-60
2021/10/26 01:33:41;;;;;;;;;;;;;;;18.04;62.64;100440.94;2084479;28;20619;-60
2021/10/26 01:34:42;;;;;;;;;;;;;;;18.04;62.61;100442.81;2081328;28;19966;-60
2021/10/26 01:35:42;;;;;;;;;;;;;;;18.04;62.60;100442.81;2072332;28;19916;-60
2021/10/26 01:36:43;;;;;;;;;;;;;;;18.04;62.57;100442.81;2071050;28;19913;-60
2021/10/26 01:37:43;;;;;;;;;;;;;;;18.03;62.52;100441.06;2079387;28;19917;-60
2021/10/26 01:38:43;;;;;;;;;;;;;;;18.04;62.43;100448.25;2080700;28;19916;-60
2021/10/26 01:39:44;;;;;;;;;;;;;;;18.03;62.44;100441.94;2083049;28;20398;-60
2021/10/26 01:40:44;;;;;;;;;;;;;;;18.04;62.27;100442.81;2079033;28;19928;-60
2021/10/26 01:41:44;;;;;;;;;;;;;;;18.04;62.51;100448.25;2084939;28;19936;-60
2021/10/26 01:42:45;;;;;;;;;;;;;;;18.03;62.53;100449.25;2081692;28;19924;-60
2021/10/26 01:43:45;;;;;;;;;;;;;;;18.03;62.55;100447.41;2084881;28;19966;-60
2021/10/26 01:44:45;;;;;;;;;;;;;;;18.03;62.49;100447.41;2081813;28;19967;-59
2021/10/26 01:45:46;;;;;;;;;;;;;;;18.04;62.28;100437.34;2076644;28;19923;-60
2021/10/26 01:46:46;;;;;;;;;;;;;;;18.03;62.57;100441.06;2084473;28;19954;-60
2021/10/26 01:47:46;;;;;;;;;;;;;;;18.04;62.50;100445.53;2081355;28;19917;-59
2021/10/26 01:48:47;;;;;;;;;;;;;;;18.03;62.36;100446.50;2084486;28;19920;-60
2021/10/26 01:49:47;;;;;;;;;;;;;;;18.03;62.47;100441.06;2078436;28;20539;-60
2021/10/26 01:50:48;;;;;;;;;;;;;;;18.02;62.53;100442.94;2084193;28;19920;-60
2021/10/26 01:51:49;;;;;;;;;;;;;;;18.02;62.46;100445.66;2082781;28;20716;-59
2021/10/26 01:52:49;;;;;;;;;;;;;;;18.02;62.46;100444.78;2079935;28;19982;-59
2021/10/26 01:53:50;;;;;;;;;;;;;;;18.03;62.38;100438.31;2080553;28;20369;-60
2021/10/26 01:54:50;;;;;;;;;;;;;;;18.02;62.44;100444.78;2066481;28;19957;-60
2021/10/26 01:55:50;;;;;;;;;;;;;;;18.00;62.45;100443.06;2069890;28;19924;-60
2021/10/26 01:56:51;;;;;;;;;;;;;;;18.01;62.52;100452.13;2082390;28;19922;-59
2021/10/26 01:57:51;;;;;;;;;;;;;;;18.01;62.44;100443.94;2079723;28;20326;-59
2021/10/26 01:58:51;;;;;;;;;;;;;;;18.00;62.54;100445.78;2081035;28;20438;-59
2021/10/26 01:59:52;;;;;;;;;;;;;;;18.00;62.57;100443.06;2083507;28;19955;-60
2021/10/26 02:00:52;;;;;;;;;;;;;;;18.02;62.55;100442.06;2079564;28;19985;-60
2021/10/26 02:01:53;;;;;;;;;;;;;;;17.99;62.37;100446.78;2080655;28;19916;-60
2021/10/26 02:02:53;;;;;;;;;;;;;;;17.99;62.30;100444.06;2079257;28;19922;-59
2021/10/26 02:03:53;;;;;;;;;;;;;;;17.99;62.41;100444.06;2080658;28;19916;-59
2021/10/26 02:04:55;;;;;;;;;;;;;;;17.99;62.38;100446.78;2074505;28;19916;-59
2021/10/26 02:05:55;;;;;;;;;;;;;;;18.00;62.39;100436.75;2072410;28;19935;-60
2021/10/26 02:06:55;;;;;;;;;;;;;;;17.99;62.46;100441.34;2083374;28;19920;-59
2021/10/26 02:07:56;;;;;;;;;;;;;;;17.99;62.45;100438.59;2082839;28;19966;-61
2021/10/26 02:08:56;;;;;;;;;;;;;;;18.00;62.26;100439.47;2074765;28;19920;-59
2021/10/26 02:09:57;;;;;;;;;;;;;;;17.99;62.37;100445.94;2072439;28;19921;-61
2021/10/26 02:10:57;;;;;;;;;;;;;;;17.99;62.32;100449.50;2079043;28;19923;-60
2021/10/26 02:11:58;;;;;;;;;;;;;;;17.99;62.48;100445.94;2084173;28;19920;-60
2021/10/26 02:12:58;;;;;;;;;;;;;;;17.98;62.39;100444.19;2083275;28;20332;-60
2021/10/26 02:13:58;;;;;;;;;;;;;;;17.99;62.37;100452.25;2080047;28;20694;-60
2021/10/26 02:14:59;;;;;;;;;;;;;;;17.98;62.28;100450.53;2081793;28;19923;-59
2021/10/26 02:15:59;;;;;;;;;;;;;;;17.98;62.41;100447.81;2074408;28;20851;-59
2021/10/26 02:17:00;;;;;;;;;;;;;;;17.99;62.37;100446.78;2074441;28;19943;-59
2021/10/26 02:18:01;;;;;;;;;;;;;;;17.98;62.43;100439.63;2082054;28;19916;-59
2021/10/26 02:19:01;;;;;;;;;;;;;;;17.98;62.19;100442.34;2084312;28;19916;-60
2021/10/26 02:20:02;;;;;;;;;;;;;;;17.99;62.28;100445.94;2079163;28;20035;-59
2021/10/26 02:21:03;;;;;;;;;;;;;;;17.99;62.41;100452.25;2083058;28;20400;-60
2021/10/26 02:22:03;;;;;;;;;;;;;;;17.99;62.35;100449.50;2080495;28;20763;-59
2021/10/26 02:23:03;;;;;;;;;;;;;;;17.98;62.30;100453.25;2081294;28;19992;-60
2021/10/26 02:24:04;;;;;;;;;;;;;;;17.97;62.43;100443.31;2080181;28;19944;-59
2021/10/26 02:25:04;;;;;;;;;;;;;;;17.98;62.11;100455.97;2079310;28;19916;-58
2021/10/26 02:26:05;;;;;;;;;;;;;;;17.99;62.11;100451.38;2080201;28;19916;-60
2021/10/26 02:27:05;;;;;;;;;;;;;;;17.98;62.19;100453.25;2082692;28;20501;-60
2021/10/26 02:28:06;;;;;;;;;;;;;;;17.98;62.25;100450.53;2082421;28;20013;-60
2021/10/26 02:29:06;;;;;;;;;;;;;;;17.96;62.13;100447.06;2078886;28;20058;-60
2021/10/26 02:30:07;;;;;;;;;;;;;;;17.98;62.29;100455.97;2077808;28;19923;-60
2021/10/26 02:31:07;;;;;;;;;;;;;;;17.98;62.24;100450.53;2082338;28;19923;-60
2021/10/26 02:32:08;;;;;;;;;;;;;;;17.99;62.30;100459.56;2080772;28;19916;-60
2021/10/26 02:33:09;;;;;;;;;;;;;;;17.99;62.28;100456.84;2082079;28;19918;-60
2021/10/26 02:34:09;;;;;;;;;;;;;;;17.97;62.36;100459.69;2084342;28;19960;-60
2021/10/26 02:35:10;;;;;;;;;;;;;;;17.98;62.14;100450.53;2082665;28;19917;-60
2021/10/26 02:36:10;;;;;;;;;;;;;;;17.97;62.10;100453.38;2081779;28;20011;-59
2021/10/26 02:37:11;;;;;;;;;;;;;;;17.97;62.25;100459.69;2083233;28;19970;-60
2021/10/26 02:38:11;;;;;;;;;;;;;;;17.98;62.22;100458.72;2078589;28;19908;-60
2021/10/26 02:39:12;;;;;;;;;;;;;;;17.98;62.06;100466.91;2081800;28;19908;-59
2021/10/26 02:40:12;;;;;;;;;;;;;;;17.97;62.15;100469.75;2079738;28;20345;-60
2021/10/26 02:41:14;;;;;;;;;;;;;;;17.98;62.15;100461.44;2081755;28;20387;-61
2021/10/26 02:42:14;;;;;;;;;;;;;;;17.98;62.14;100460.56;2077227;28;19940;-60
2021/10/26 02:43:14;;;;;;;;;;;;;;;17.96;62.23;100455.25;2072479;28;19949;-60
2021/10/26 02:44:14;;;;;;;;;;;;;;;17.97;62.22;100461.56;2073616;28;19909;-61
2021/10/26 02:45:17;;;;;;;;;;;;;;;17.97;62.12;100464.28;2083344;28;19920;-61
2021/10/26 02:46:18;;;;;;;;;;;;;;;17.97;62.23;100470.59;2081638;28;19921;-60
2021/10/26 02:47:18;;;;;;;;;;;;;;;17.97;62.22;100459.69;2079826;28;19916;-60
2021/10/26 02:48:18;;;;;;;;;;;;;;;17.96;62.17;100462.56;2080293;28;20579;-60
2021/10/26 02:49:18;;;;;;;;;;;;;;;17.96;62.14;100463.44;2081879;28;20418;-60
2021/10/26 02:50:19;;;;;;;;;;;;;;;17.97;62.29;100464.28;2083333;28;20009;-60
2021/10/26 02:51:20;;;;;;;;;;;;;;;17.96;62.26;100466.16;2079861;28;20891;-60
2021/10/26 02:52:20;;;;;;;;;;;;;;;17.97;62.04;100465.16;2079363;28;19921;-60
2021/10/26 02:53:20;;;;;;;;;;;;;;;17.96;62.06;100471.63;2083917;28;20398;-60
2021/10/26 02:54:21;;;;;;;;;;;;;;;17.96;62.31;100474.34;2081419;28;19916;-60
2021/10/26 02:55:21;;;;;;;;;;;;;;;17.96;62.26;100468.03;2078749;28;19916;-60
2021/10/26 02:56:21;;;;;;;;;;;;;;;17.96;62.27;100474.34;2081563;28;19923;-60
2021/10/26 02:57:22;;;;;;;;;;;;;;;17.95;62.02;100472.59;2081598;28;19973;-60
2021/10/26 02:58:22;;;;;;;;;;;;;;;17.96;62.17;100473.47;2079840;28;19921;-60
2021/10/26 02:59:24;;;;;;;;;;;;;;;17.95;61.99;100478.03;2075604;28;19925;-61
2021/10/26 03:00:25;;;;;;;;;;;;;;;17.95;62.17;100472.59;2077699;28;19995;-60
2021/10/26 03:01:25;;;;;;;;;;;;;;;17.95;62.02;100472.59;2076190;28;19962;-60
2021/10/26 03:02:25;;;;;;;;;;;;;;;17.96;62.11;100470.75;2072694;28;19924;-61
2021/10/26 03:03:26;;;;;;;;;;;;;;;17.95;62.11;100472.59;2071862;28;19924;-61
2021/10/26 03:04:26;;;;;;;;;;;;;;;17.95;62.11;100472.59;2077008;28;20375;-60
2021/10/26 03:05:26;;;;;;;;;;;;;;;17.95;62.14;100472.59;2079235;28;19921;-60
2021/10/26 03:06:26;;;;;;;;;;;;;;;17.95;62.05;100469.88;2080840;28;19917;-60
2021/10/26 03:07:27;;;;;;;;;;;;;;;17.94;62.00;100473.59;2077856;28;19916;-60
2021/10/26 03:08:27;;;;;;;;;;;;;;;17.94;62.15;100470.88;2077934;28;19920;-60
2021/10/26 03:09:27;;;;;;;;;;;;;;;17.95;61.99;100475.31;2077336;28;19939;-61
2021/10/26 03:10:28;;;;;;;;;;;;;;;17.94;62.06;100470.88;2081368;28;19931;-61
2021/10/26 03:11:28;;;;;;;;;;;;;;;17.95;62.24;100471.72;2082996;28;19916;-60
2021/10/26 03:12:28;;;;;;;;;;;;;;;17.94;62.06;100470.88;2078417;28;19923;-60
2021/10/26 03:13:29;;;;;;;;;;;;;;;17.94;62.13;100468.16;2079631;28;19931;-60
2021/10/26 03:14:29;;;;;;;;;;;;;;;17.94;62.24;100470.88;2067679;28;19924;-60
2021/10/26 03:15:30;;;;;;;;;;;;;;;17.94;61.86;100470.88;2062350;28;19921;-60
2021/10/26 03:16:30;;;;;;;;;;;;;;;17.94;61.90;100472.75;2070376;28;20038;-60
2021/10/26 03:17:31;;;;;;;;;;;;;;;17.95;61.96;100482.66;2082232;28;19922;-60
2021/10/26 03:18:31;;;;;;;;;;;;;;;17.94;61.93;100475.47;2081697;28;19915;-60
2021/10/26 03:19:31;;;;;;;;;;;;;;;17.93;62.08;100480.06;2083116;28;20712;-60
2021/10/26 03:20:32;;;;;;;;;;;;;;;17.94;61.83;100475.47;2080129;28;20987;-60
2021/10/26 03:21:33;;;;;;;;;;;;;;;17.94;62.08;100473.59;2077370;28;19958;-60
2021/10/26 03:22:33;;;;;;;;;;;;;;;17.93;61.94;100474.63;2082146;28;20551;-60
2021/10/26 03:23:34;;;;;;;;;;;;;;;17.93;62.03;100480.06;2082021;28;20581;-60
2021/10/26 03:24:34;;;;;;;;;;;;;;;17.94;62.02;100478.19;2080714;28;19913;-60
2021/10/26 03:25:34;;;;;;;;;;;;;;;17.93;62.22;100485.53;2079768;28;19994;-60
2021/10/26 03:26:35;;;;;;;;;;;;;;;17.93;62.05;100485.53;2085122;28;19920;-60
2021/10/26 03:27:35;;;;;;;;;;;;;;;17.92;61.91;100483.78;2077648;28;19948;-61
2021/10/26 03:28:36;;;;;;;;;;;;;;;17.93;61.90;100485.53;2079947;28;20666;-60
2021/10/26 03:29:36;;;;;;;;;;;;;;;17.93;61.82;100485.53;2083147;28;19912;-60
2021/10/26 03:30:37;;;;;;;;;;;;;;;17.93;61.95;100479.19;2082899;28;20178;-60
2021/10/26 03:31:38;;;;;;;;;;;;;;;17.92;61.95;100486.50;2082605;28;19970;-60
2021/10/26 03:32:39;;;;;;;;;;;;;;;17.93;61.83;100482.81;2082303;28;19969;-60
2021/10/26 03:33:40;;;;;;;;;;;;;;;17.93;62.12;100482.81;2082800;28;20370;-60
2021/10/26 03:34:40;;;;;;;;;;;;;;;17.93;61.79;100488.25;2080894;28;20353;-60
2021/10/26 03:35:41;;;;;;;;;;;;;;;17.93;61.95;100484.63;2081859;28;19923;-60
2021/10/26 03:36:42;;;;;;;;;;;;;;;17.92;62.16;100489.22;2082734;28;19916;-60
2021/10/26 03:37:43;;;;;;;;;;;;;;;17.93;62.03;100496.44;2080032;28;19923;-60
2021/10/26 03:38:43;;;;;;;;;;;;;;;17.92;62.13;100483.78;2085490;28;20391;-60
2021/10/26 03:39:44;;;;;;;;;;;;;;;17.92;62.03;100489.22;2083055;28;20418;-60
2021/10/26 03:40:45;;;;;;;;;;;;;;;17.92;61.89;100486.50;2078180;28;19943;-60
2021/10/26 03:41:45;;;;;;;;;;;;;;;17.91;62.11;100492.97;2084712;28;19924;-60
2021/10/26 03:42:46;;;;;;;;;;;;;;;17.91;61.82;100484.78;2081862;28;19920;-60
2021/10/26 03:43:46;;;;;;;;;;;;;;;17.92;61.89;100485.66;2083511;28;19923;-60
2021/10/26 03:44:47;;;;;;;;;;;;;;;17.91;62.11;100487.53;2082957;28;20322;-60
2021/10/26 03:45:47;;;;;;;;;;;;;;;17.91;61.87;100492.97;2078768;28;19912;-60
2021/10/26 03:46:47;;;;;;;;;;;;;;;17.90;61.80;100490.38;2083971;28;19916;-61
2021/10/26 03:47:48;;;;;;;;;;;;;;;17.91;61.85;100487.53;2079631;28;19965;-60
2021/10/26 03:48:48;;;;;;;;;;;;;;;17.91;61.79;100490.25;2078402;28;20041;-60
2021/10/26 03:49:48;;;;;;;;;;;;;;;17.91;62.01;100492.97;2081142;28;19946;-60
2021/10/26 03:50:49;;;;;;;;;;;;;;;17.91;61.86;100498.44;2073737;28;20699;-60
2021/10/26 03:51:49;;;;;;;;;;;;;;;17.91;61.92;100498.44;2072646;28;19917;-60
2021/10/26 03:52:49;;;;;;;;;;;;;;;17.91;61.93;100490.25;2081556;28;20369;-60
2021/10/26 03:53:50;;;;;;;;;;;;;;;17.91;61.92;100495.69;2082934;28;19940;-60
2021/10/26 03:54:55;;;;;;;;;;;;;;;17.91;61.93;100498.44;2083070;28;19916;-61
2021/10/26 03:55:56;;;;;;;;;;;;;;;17.90;62.15;100491.22;2084286;28;19924;-60
2021/10/26 03:56:56;;;;;;;;;;;;;;;17.91;61.99;100497.56;2082538;28;19948;-60
2021/10/26 03:57:56;;;;;;;;;;;;;;;17.90;62.03;100491.22;2083695;28;20423;-60
2021/10/26 03:58:58;;;;;;;;;;;;;;;17.90;61.75;100491.22;2082258;28;19909;-60
2021/10/26 03:59:58;;;;;;;;;;;;;;;17.91;61.98;100492.97;2080867;28;20714;-60
2021/10/26 04:00:59;;;;;;;;;;;;;;;17.91;61.92;100495.69;2084040;28;20441;-60
2021/10/26 04:02:05;;;;;;;;;;;;;;;17.91;61.84;100503.88;2081714;28;19916;-60
2021/10/26 04:03:05;;;;;;;;;;;;;;;17.90;61.92;100496.69;2082991;28;19916;-61
2021/10/26 04:04:06;;;;;;;;;;;;;;;17.90;61.82;100504.84;2081615;28;19917;-60
2021/10/26 04:05:33;;;;;;;;;;;;;;;17.90;61.85;100502.13;2078476;28;19923;-61
2021/10/26 04:06:34;;;;;;;;;;;;;;;17.90;61.98;100504.00;2083170;28;19986;-60
2021/10/26 04:07:35;;;;;;;;;;;;;;;17.91;61.79;100506.59;2082015;28;19920;-60
2021/10/26 04:10:55;;;;;;;;;;;;;;;17.90;61.84;100504.84;2080532;28;20539;-60
2021/10/26 04:12:16;;;;;;;;;;;;;;;17.90;61.85;100504.00;2078761;28;19912;-60
2021/10/26 04:13:16;;;;;;;;;;;;;;;17.90;62.06;100504.00;2075821;28;19968;-60
2021/10/26 04:14:16;;;;;;;;;;;;;;;17.90;62.00;100504.00;2083758;28;19920;-61
2021/10/26 04:15:16;;;;;;;;;;;;;;;17.90;61.94;100506.72;2079563;28;19908;-60
2021/10/26 04:16:18;;;;;;;;;;;;;;;17.89;61.72;100503.16;2080401;28;19957;-60
2021/10/26 04:17:19;;;;;;;;;;;;;;;17.90;61.89;100506.72;2082699;28;20357;-60
2021/10/26 04:18:20;;;;;;;;;;;;;;;17.90;61.79;100506.72;2077975;28;19920;-60
2021/10/26 04:19:20;;;;;;;;;;;;;;;17.90;61.76;100507.59;2082562;28;19923;-60
2021/10/26 04:20:20;;;;;;;;;;;;;;;17.89;61.92;100505.88;2071821;28;19916;-60
2021/10/26 04:21:20;;;;;;;;;;;;;;;17.89;61.89;100502.28;2069997;28;20429;-60
2021/10/26 04:22:21;;;;;;;;;;;;;;;17.89;61.84;100505.88;2078801;28;19909;-60
2021/10/26 04:23:22;;;;;;;;;;;;;;;17.90;61.89;100504.84;2078004;28;20007;-60
2021/10/26 04:24:23;;;;;;;;;;;;;;;17.89;61.83;100505.88;2083343;28;20252;-60
2021/10/26 04:25:23;;;;;;;;;;;;;;;17.89;61.83;100505.88;2080122;28;20155;-60
2021/10/26 04:26:23;;;;;;;;;;;;;;;17.88;61.76;100504.13;2077766;28;20567;-61
2021/10/26 04:27:25;;;;;;;;;;;;;;;17.89;61.97;100507.75;2082605;28;20592;-60
2021/10/26 04:28:25;;;;;;;;;;;;;;;17.89;61.88;100500.41;2079589;28;19909;-59
2021/10/26 04:29:25;;;;;;;;;;;;;;;17.89;61.78;100505.88;2081097;28;19927;-60
2021/10/26 04:30:26;;;;;;;;;;;;;;;17.88;61.96;100506.84;2084292;28;19974;-60
2021/10/26 04:31:26;;;;;;;;;;;;;;;17.88;61.78;100504.13;2081829;28;19916;-60
2021/10/26 04:32:26;;;;;;;;;;;;;;;17.88;61.72;100504.13;2082302;28;20306;-60
2021/10/26 04:33:27;;;;;;;;;;;;;;;17.89;62.04;100505.88;2082081;28;19924;-60
2021/10/26 04:34:27;;;;;;;;;;;;;;;17.89;61.92;100505.00;2076797;28;19955;-58
2021/10/26 04:35:28;;;;;;;;;;;;;;;17.89;61.74;100502.28;2079240;28;19913;-59
2021/10/26 04:36:28;;;;;;;;;;;;;;;17.89;61.83;100505.00;2069749;28;19917;-60
2021/10/26 04:37:29;;;;;;;;;;;;;;;17.87;61.71;100502.41;2064389;28;19986;-59
2021/10/26 04:38:29;;;;;;;;;;;;;;;17.88;61.99;100506.84;2075162;28;19955;-60
2021/10/26 04:39:29;;;;;;;;;;;;;;;17.87;61.89;100505.13;2078232;28;19921;-60
2021/10/26 04:40:31;;;;;;;;;;;;;;;17.88;61.96;100514.16;2082846;28;19916;-60
2021/10/26 04:41:34;;;;;;;;;;;;;;;17.87;61.75;100507.84;2070571;28;20336;-60
2021/10/26 04:42:35;;;;;;;;;;;;;;;17.87;61.83;100505.13;2070269;28;19948;-60
2021/10/26 04:43:35;;;;;;;;;;;;;;;17.88;61.81;100504.13;2081609;28;19921;-59
2021/10/26 04:44:37;;;;;;;;;;;;;;;17.88;61.93;100504.13;2077490;28;19923;-60
2021/10/26 04:45:37;;;;;;;;;;;;;;;17.87;61.94;100502.41;2078498;28;19917;-59
2021/10/26 04:46:37;;;;;;;;;;;;;;;17.88;61.80;100508.72;2082690;28;19927;-59
2021/10/26 04:47:40;;;;;;;;;;;;;;;17.87;61.98;100507.84;2078339;28;20322;-60
2021/10/26 04:48:41;;;;;;;;;;;;;;;17.88;61.74;100515.03;2079491;28;19917;-60
2021/10/26 04:49:41;;;;;;;;;;;;;;;17.87;61.76;100507.84;2077669;28;20320;-60
2021/10/26 04:50:42;;;;;;;;;;;;;;;17.86;61.98;100511.59;2080468;28;19917;-60
2021/10/26 04:51:43;;;;;;;;;;;;;;;17.86;61.92;100517.06;2083692;28;19909;-60
2021/10/26 04:52:43;;;;;;;;;;;;;;;17.87;62.00;100518.75;2081890;28;19927;-60
2021/10/26 04:53:44;;;;;;;;;;;;;;;17.86;61.81;100522.50;2081966;28;19958;-60
2021/10/26 04:54:44;;;;;;;;;;;;;;;17.86;61.90;100517.06;2075007;28;19912;-60
2021/10/26 04:55:44;;;;;;;;;;;;;;;17.86;61.65;100522.50;2073674;28;19913;-60
2021/10/26 04:56:45;;;;;;;;;;;;;;;17.86;61.95;100521.63;2084708;28;20758;-60
2021/10/26 04:57:45;;;;;;;;;;;;;;;17.87;61.98;100523.38;2085892;28;19920;-60
2021/10/26 04:58:45;;;;;;;;;;;;;;;17.87;61.79;100523.38;2082823;28;20647;-60
2021/10/26 04:59:46;;;;;;;;;;;;;;;17.87;62.00;100517.91;2076229;28;19924;-60
2021/10/26 05:00:46;;;;;;;;;;;;;;;17.86;61.77;100519.78;2076305;28;19919;-61
2021/10/26 05:01:47;;;;;;;;;;;;;;;17.87;61.68;100528.81;2074515;28;20003;-61
2021/10/26 05:02:47;;;;;;;;;;;;;;;17.86;61.65;100527.97;2076485;28;19924;-61
2021/10/26 05:03:47;;;;;;;;;;;;;;;17.87;61.70;100528.81;2072916;28;19924;-59
2021/10/26 05:04:48;;;;;;;;;;;;;;;17.87;61.89;100537.84;2075383;28;19916;-59
2021/10/26 05:05:48;;;;;;;;;;;;;;;17.86;61.78;100533.41;2074779;28;20395;-59
2021/10/26 05:06:48;;;;;;;;;;;;;;;17.86;61.68;100535.25;2074602;28;19924;-60
2021/10/26 05:07:50;;;;;;;;;;;;;;;17.86;61.68;100533.41;2085693;28;19969;-60
2021/10/26 05:08:52;;;;;;;;;;;;;;;17.86;61.98;100538.88;2082048;28;20384;-60
2021/10/26 05:09:53;;;;;;;;;;;;;;;17.86;61.79;100532.53;2083814;28;19923;-60
2021/10/26 05:10:53;;;;;;;;;;;;;;;17.85;61.87;100534.41;2085477;28;19922;-60
2021/10/26 05:11:53;;;;;;;;;;;;;;;17.86;61.90;100533.41;2083051;28;19921;-60
2021/10/26 05:12:54;;;;;;;;;;;;;;;17.85;61.92;100539.84;2084472;28;20651;-60
2021/10/26 05:13:54;;;;;;;;;;;;;;;17.85;61.90;100539.84;2083156;28;19956;-60